Terminal Aerodrome Forecast
Issued by NWS Shreveport, LA

Home | Current Version | Previous Version | Text Only | Print | Product List | Glossary On
Versions: 1 2 3 4 5 6 7 8 9 10 11 12
000
FTUS44 KSHV 172300
TAFELD
TAF
KELD 172339Z 1800/1824 VRB03KT P6SM FEW100 BKN250
     FM180500 VRB03KT P6SM FEW040 BKN090
     FM181500 02005KT P6SM BKN040
     FM181800 04007KT P6SM SCT040 SCT100=

USA.gov is the U.S. government's official web portal to all federal, state and local government web resources and services.